sensor_id;sensor_type;location;lat;lon;timestamp;temperature;humidity
24744;DHT22;12844;52.110;5.548;2023-02-16T00:00:29;18.30;53.00
24744;DHT22;12844;52.110;5.548;2023-02-16T00:02:55;18.30;52.90
24744;DHT22;12844;52.110;5.548;2023-02-16T00:07:52;18.30;52.90
24744;DHT22;12844;52.110;5.548;2023-02-16T00:10:18;18.30;52.90
24744;DHT22;12844;52.110;5.548;2023-02-16T00:12:44;18.30;52.90
24744;DHT22;12844;52.110;5.548;2023-02-16T00:15:28;18.30;52.90
24744;DHT22;12844;52.110;5.548;2023-02-16T00:17:54;18.20;52.90
24744;DHT22;12844;52.110;5.548;2023-02-16T00:20:21;18.20;52.90
24744;DHT22;12844;52.110;5.548;2023-02-16T00:22:46;18.20;52.90
24744;DHT22;12844;52.110;5.548;2023-02-16T00:25:12;18.20;52.90
24744;DHT22;12844;52.110;5.548;2023-02-16T00:27:37;18.20;52.90
24744;DHT22;12844;52.110;5.548;2023-02-16T00:30:23;18.20;52.90
24744;DHT22;12844;52.110;5.548;2023-02-16T00:32:49;18.20;52.80
24744;DHT22;12844;52.110;5.548;2023-02-16T00:35:16;18.20;52.90
24744;DHT22;12844;52.110;5.548;2023-02-16T00:37:42;18.20;52.90
24744;DHT22;12844;52.110;5.548;2023-02-16T00:40:09;18.20;52.90
24744;DHT22;12844;52.110;5.548;2023-02-16T00:42:35;18.20;52.90
24744;DHT22;12844;52.110;5.548;2023-02-16T00:45:01;18.20;52.90
24744;DHT22;12844;52.110;5.548;2023-02-16T00:47:36;18.20;52.90
24744;DHT22;12844;52.110;5.548;2023-02-16T00:50:13;18.20;52.90
24744;DHT22;12844;52.110;5.548;2023-02-16T00:52:40;18.20;52.90
24744;DHT22;12844;52.110;5.548;2023-02-16T00:55:15;18.20;52.90
24744;DHT22;12844;52.110;5.548;2023-02-16T00:57:51;18.20;52.90
24744;DHT22;12844;52.110;5.548;2023-02-16T01:00:24;18.20;52.90
24744;DHT22;12844;52.110;5.548;2023-02-16T01:02:52;18.20;52.90
24744;DHT22;12844;52.110;5.548;2023-02-16T01:05:19;18.20;52.90
24744;DHT22;12844;52.110;5.548;2023-02-16T01:07:44;18.20;52.90
24744;DHT22;12844;52.110;5.548;2023-02-16T01:10:29;18.20;52.90
24744;DHT22;12844;52.110;5.548;2023-02-16T01:13:14;18.20;53.00
24744;DHT22;12844;52.110;5.548;2023-02-16T01:15:40;18.10;52.90
24744;DHT22;12844;52.110;5.548;2023-02-16T01:18:06;18.10;52.90
24744;DHT22;12844;52.110;5.548;2023-02-16T01:20:32;18.10;52.90
24744;DHT22;12844;52.110;5.548;2023-02-16T01:23:00;18.20;52.90
24744;DHT22;12844;52.110;5.548;2023-02-16T01:25:26;18.10;52.90
24744;DHT22;12844;52.110;5.548;2023-02-16T01:27:52;18.10;52.90
24744;DHT22;12844;52.110;5.548;2023-02-16T01:30:23;18.10;52.90
24744;DHT22;12844;52.110;5.548;2023-02-16T01:32:48;18.10;52.90
24744;DHT22;12844;52.110;5.548;2023-02-16T01:35:23;18.20;52.90
24744;DHT22;12844;52.110;5.548;2023-02-16T01:37:51;18.10;52.80
24744;DHT22;12844;52.110;5.548;2023-02-16T01:43:20;18.10;52.80
24744;DHT22;12844;52.110;5.548;2023-02-16T01:46:04;18.10;52.90
24744;DHT22;12844;52.110;5.548;2023-02-16T01:48:31;18.10;52.90
24744;DHT22;12844;52.110;5.548;2023-02-16T01:51:03;18.10;52.90
24744;DHT22;12844;52.110;5.548;2023-02-16T01:53:45;18.10;52.90
24744;DHT22;12844;52.110;5.548;2023-02-16T01:56:29;18.10;52.90
24744;DHT22;12844;52.110;5.548;2023-02-16T01:59:02;18.10;52.80
24744;DHT22;12844;52.110;5.548;2023-02-16T02:01:37;18.10;52.90
24744;DHT22;12844;52.110;5.548;2023-02-16T02:07:13;18.10;52.80
24744;DHT22;12844;52.110;5.548;2023-02-16T02:09:49;18.10;52.90
24744;DHT22;12844;52.110;5.548;2023-02-16T02:12:23;18.10;52.90
24744;DHT22;12844;52.110;5.548;2023-02-16T02:14:51;18.10;52.90
24744;DHT22;12844;52.110;5.548;2023-02-16T02:17:19;18.10;52.80
24744;DHT22;12844;52.110;5.548;2023-02-16T02:20:15;18.00;52.80
24744;DHT22;12844;52.110;5.548;2023-02-16T02:23:15;18.10;52.80
24744;DHT22;12844;52.110;5.548;2023-02-16T02:39:18;18.00;53.00
24744;DHT22;12844;52.110;5.548;2023-02-16T02:41:56;18.00;53.60
24744;DHT22;12844;52.110;5.548;2023-02-16T02:44:41;18.00;53.10
24744;DHT22;12844;52.110;5.548;2023-02-16T02:47:10;18.00;53.00
24744;DHT22;12844;52.110;5.548;2023-02-16T02:49:36;18.00;53.00
24744;DHT22;12844;52.110;5.548;2023-02-16T02:52:02;18.00;52.90
24744;DHT22;12844;52.110;5.548;2023-02-16T02:54:32;18.00;52.90
24744;DHT22;12844;52.110;5.548;2023-02-16T02:57:18;18.00;52.90
24744;DHT22;12844;52.110;5.548;2023-02-16T03:00:29;18.00;52.90
24744;DHT22;12844;52.110;5.548;2023-02-16T03:03:30;18.00;52.90
24744;DHT22;12844;52.110;5.548;2023-02-16T03:06:16;18.00;52.90
24744;DHT22;12844;52.110;5.548;2023-02-16T03:08:45;18.00;52.90
24744;DHT22;12844;52.110;5.548;2023-02-16T03:11:16;17.90;52.90
24744;DHT22;12844;52.110;5.548;2023-02-16T03:14:09;17.90;52.90
24744;DHT22;12844;52.110;5.548;2023-02-16T03:16:45;18.00;52.90
24744;DHT22;12844;52.110;5.548;2023-02-16T03:19:14;18.00;52.90
24744;DHT22;12844;52.110;5.548;2023-02-16T03:22:00;18.00;52.90
24744;DHT22;12844;52.110;5.548;2023-02-16T03:24:45;17.90;52.80
24744;DHT22;12844;52.110;5.548;2023-02-16T03:27:33;17.90;52.80
24744;DHT22;12844;52.110;5.548;2023-02-16T03:30:20;18.00;52.90
24744;DHT22;12844;52.110;5.548;2023-02-16T03:32:47;17.90;52.80
24744;DHT22;12844;52.110;5.548;2023-02-16T03:35:13;17.90;52.80
24744;DHT22;12844;52.110;5.548;2023-02-16T03:37:42;17.90;52.70
24744;DHT22;12844;52.110;5.548;2023-02-16T03:40:11;17.90;52.70
24744;DHT22;12844;52.110;5.548;2023-02-16T03:42:55;17.90;52.70
24744;DHT22;12844;52.110;5.548;2023-02-16T03:45:22;17.90;52.70
24744;DHT22;12844;52.110;5.548;2023-02-16T03:47:48;17.90;52.70
24744;DHT22;12844;52.110;5.548;2023-02-16T03:50:14;17.90;52.60
24744;DHT22;12844;52.110;5.548;2023-02-16T03:52:40;17.90;52.60
24744;DHT22;12844;52.110;5.548;2023-02-16T03:55:05;17.90;52.60
24744;DHT22;12844;52.110;5.548;2023-02-16T03:57:31;17.90;52.60
24744;DHT22;12844;52.110;5.548;2023-02-16T03:59:56;17.90;52.60
24744;DHT22;12844;52.110;5.548;2023-02-16T04:02:24;17.90;52.60
24744;DHT22;12844;52.110;5.548;2023-02-16T04:04:50;17.90;52.60
24744;DHT22;12844;52.110;5.548;2023-02-16T04:07:15;17.90;52.60
24744;DHT22;12844;52.110;5.548;2023-02-16T04:09:41;17.90;52.60
24744;DHT22;12844;52.110;5.548;2023-02-16T04:12:07;17.90;52.50
24744;DHT22;12844;52.110;5.548;2023-02-16T04:14:51;17.90;53.20
24744;DHT22;12844;52.110;5.548;2023-02-16T04:17:17;17.90;52.50
24744;DHT22;12844;52.110;5.548;2023-02-16T04:19:42;17.90;52.50
24744;DHT22;12844;52.110;5.548;2023-02-16T04:22:08;17.90;52.50
24744;DHT22;12844;52.110;5.548;2023-02-16T04:24:33;17.90;52.40
24744;DHT22;12844;52.110;5.548;2023-02-16T04:26:59;17.90;52.40
24744;DHT22;12844;52.110;5.548;2023-02-16T04:29:25;17.90;52.30
24744;DHT22;12844;52.110;5.548;2023-02-16T04:31:50;17.90;52.40
24744;DHT22;12844;52.110;5.548;2023-02-16T04:34:16;17.90;52.40
24744;DHT22;12844;52.110;5.548;2023-02-16T04:36:41;17.90;52.30
24744;DHT22;12844;52.110;5.548;2023-02-16T04:39:07;17.90;52.30
24744;DHT22;12844;52.110;5.548;2023-02-16T04:41:32;17.90;52.30
24744;DHT22;12844;52.110;5.548;2023-02-16T04:43:58;17.90;52.30
24744;DHT22;12844;52.110;5.548;2023-02-16T04:46:23;17.90;52.30
24744;DHT22;12844;52.110;5.548;2023-02-16T04:48:49;17.90;52.40
24744;DHT22;12844;52.110;5.548;2023-02-16T04:51:15;17.90;52.40
24744;DHT22;12844;52.110;5.548;2023-02-16T04:53:40;17.90;52.40
24744;DHT22;12844;52.110;5.548;2023-02-16T04:56:11;17.90;52.30
24744;DHT22;12844;52.110;5.548;2023-02-16T04:58:36;17.90;52.30
24744;DHT22;12844;52.110;5.548;2023-02-16T05:01:02;17.90;52.30
24744;DHT22;12844;52.110;5.548;2023-02-16T05:03:28;17.90;52.30
24744;DHT22;12844;52.110;5.548;2023-02-16T05:05:53;17.90;52.20
24744;DHT22;12844;52.110;5.548;2023-02-16T05:08:19;17.90;52.20
24744;DHT22;12844;52.110;5.548;2023-02-16T05:10:44;17.90;52.20
24744;DHT22;12844;52.110;5.548;2023-02-16T05:13:30;17.90;52.20
24744;DHT22;12844;52.110;5.548;2023-02-16T05:16:14;17.90;52.20
24744;DHT22;12844;52.110;5.548;2023-02-16T05:18:39;17.80;52.20
24744;DHT22;12844;52.110;5.548;2023-02-16T05:21:05;17.80;52.10
24744;DHT22;12844;52.110;5.548;2023-02-16T05:23:49;17.90;52.20
24744;DHT22;12844;52.110;5.548;2023-02-16T05:26:14;17.80;52.10
24744;DHT22;12844;52.110;5.548;2023-02-16T05:28:40;17.80;52.00
24744;DHT22;12844;52.110;5.548;2023-02-16T05:31:05;17.80;52.00
24744;DHT22;12844;52.110;5.548;2023-02-16T05:33:31;17.90;52.20
24744;DHT22;12844;52.110;5.548;2023-02-16T05:35:56;17.80;52.00
24744;DHT22;12844;52.110;5.548;2023-02-16T05:38:22;17.80;52.00
24744;DHT22;12844;52.110;5.548;2023-02-16T05:40:47;17.80;52.00
24744;DHT22;12844;52.110;5.548;2023-02-16T05:43:13;17.80;52.00
24744;DHT22;12844;52.110;5.548;2023-02-16T05:45:39;17.80;52.00
24744;DHT22;12844;52.110;5.548;2023-02-16T05:48:04;17.80;52.00
24744;DHT22;12844;52.110;5.548;2023-02-16T05:50:30;17.80;51.90
24744;DHT22;12844;52.110;5.548;2023-02-16T05:52:55;17.80;51.90
24744;DHT22;12844;52.110;5.548;2023-02-16T05:55:21;17.80;51.90
24744;DHT22;12844;52.110;5.548;2023-02-16T05:57:46;17.80;51.80
24744;DHT22;12844;52.110;5.548;2023-02-16T06:00:12;17.80;51.90
24744;DHT22;12844;52.110;5.548;2023-02-16T06:02:38;17.80;51.90
24744;DHT22;12844;52.110;5.548;2023-02-16T06:05:03;17.80;51.80
24744;DHT22;12844;52.110;5.548;2023-02-16T06:07:29;17.80;51.90
24744;DHT22;12844;52.110;5.548;2023-02-16T06:09:55;17.80;51.80
24744;DHT22;12844;52.110;5.548;2023-02-16T06:12:20;17.80;51.90
24744;DHT22;12844;52.110;5.548;2023-02-16T06:14:46;17.80;51.90
24744;DHT22;12844;52.110;5.548;2023-02-16T06:17:11;17.80;51.90
24744;DHT22;12844;52.110;5.548;2023-02-16T06:19:37;17.80;51.90
24744;DHT22;12844;52.110;5.548;2023-02-16T06:22:02;17.80;51.90
24744;DHT22;12844;52.110;5.548;2023-02-16T06:24:28;17.80;52.00
24744;DHT22;12844;52.110;5.548;2023-02-16T06:26:53;17.80;52.00
24744;DHT22;12844;52.110;5.548;2023-02-16T06:29:19;17.80;52.00
24744;DHT22;12844;52.110;5.548;2023-02-16T06:31:44;17.80;52.00
24744;DHT22;12844;52.110;5.548;2023-02-16T06:34:10;17.80;52.00
24744;DHT22;12844;52.110;5.548;2023-02-16T06:36:35;17.80;52.00
24744;DHT22;12844;52.110;5.548;2023-02-16T06:39:01;17.80;52.00
24744;DHT22;12844;52.110;5.548;2023-02-16T06:41:26;17.80;52.60
24744;DHT22;12844;52.110;5.548;2023-02-16T06:44:06;17.80;51.90
24744;DHT22;12844;52.110;5.548;2023-02-16T06:46:33;17.80;51.90
24744;DHT22;12844;52.110;5.548;2023-02-16T06:48:58;17.80;52.00
24744;DHT22;12844;52.110;5.548;2023-02-16T06:51:24;17.80;52.00
24744;DHT22;12844;52.110;5.548;2023-02-16T06:53:50;17.80;51.90
24744;DHT22;12844;52.110;5.548;2023-02-16T06:56:16;17.80;52.00
24744;DHT22;12844;52.110;5.548;2023-02-16T06:58:41;17.80;52.00
24744;DHT22;12844;52.110;5.548;2023-02-16T07:01:07;17.80;52.00
24744;DHT22;12844;52.110;5.548;2023-02-16T07:03:32;17.80;52.00
24744;DHT22;12844;52.110;5.548;2023-02-16T07:05:59;17.80;51.90
24744;DHT22;12844;52.110;5.548;2023-02-16T07:08:25;17.80;52.00
24744;DHT22;12844;52.110;5.548;2023-02-16T07:10:52;17.70;51.90
24744;DHT22;12844;52.110;5.548;2023-02-16T07:13:17;17.80;52.00
24744;DHT22;12844;52.110;5.548;2023-02-16T07:15:43;17.70;51.90
24744;DHT22;12844;52.110;5.548;2023-02-16T07:18:09;17.70;51.90
24744;DHT22;12844;52.110;5.548;2023-02-16T07:20:34;17.70;51.80
24744;DHT22;12844;52.110;5.548;2023-02-16T07:23:00;17.70;51.80
24744;DHT22;12844;52.110;5.548;2023-02-16T07:25:25;17.70;51.80
24744;DHT22;12844;52.110;5.548;2023-02-16T07:27:51;17.70;51.80
24744;DHT22;12844;52.110;5.548;2023-02-16T07:30:16;17.70;51.80
24744;DHT22;12844;52.110;5.548;2023-02-16T07:32:42;17.70;51.90
24744;DHT22;12844;52.110;5.548;2023-02-16T07:35:08;17.70;51.90
24744;DHT22;12844;52.110;5.548;2023-02-16T07:37:34;17.70;51.90
24744;DHT22;12844;52.110;5.548;2023-02-16T07:40:00;17.70;51.80
24744;DHT22;12844;52.110;5.548;2023-02-16T07:42:29;17.70;51.80
24744;DHT22;12844;52.110;5.548;2023-02-16T07:44:55;17.70;51.90
24744;DHT22;12844;52.110;5.548;2023-02-16T07:47:21;17.60;51.70
24744;DHT22;12844;52.110;5.548;2023-02-16T07:49:47;17.60;52.00
24744;DHT22;12844;52.110;5.548;2023-02-16T07:52:13;17.60;52.50
24744;DHT22;12844;52.110;5.548;2023-02-16T07:54:38;17.60;52.80
24744;DHT22;12844;52.110;5.548;2023-02-16T07:57:04;17.60;53.00
24744;DHT22;12844;52.110;5.548;2023-02-16T07:59:30;17.60;53.30
24744;DHT22;12844;52.110;5.548;2023-02-16T08:01:55;17.70;53.40
24744;DHT22;12844;52.110;5.548;2023-02-16T08:04:21;17.80;53.30
24744;DHT22;12844;52.110;5.548;2023-02-16T08:06:46;17.90;53.30
24744;DHT22;12844;52.110;5.548;2023-02-16T08:09:13;18.00;53.40
24744;DHT22;12844;52.110;5.548;2023-02-16T08:11:39;18.10;53.40
24744;DHT22;12844;52.110;5.548;2023-02-16T08:14:05;18.10;53.30
24744;DHT22;12844;52.110;5.548;2023-02-16T08:16:31;18.20;53.30
24744;DHT22;12844;52.110;5.548;2023-02-16T08:18:58;18.20;53.20
24744;DHT22;12844;52.110;5.548;2023-02-16T08:21:29;18.30;53.10
24744;DHT22;12844;52.110;5.548;2023-02-16T08:23:58;18.30;53.00
24744;DHT22;12844;52.110;5.548;2023-02-16T08:26:28;18.40;52.90
24744;DHT22;12844;52.110;5.548;2023-02-16T08:28:55;18.40;52.80
24744;DHT22;12844;52.110;5.548;2023-02-16T08:31:27;18.40;52.90
24744;DHT22;12844;52.110;5.548;2023-02-16T08:33:58;18.50;52.90
24744;DHT22;12844;52.110;5.548;2023-02-16T08:36:30;18.50;52.90
24744;DHT22;12844;52.110;5.548;2023-02-16T08:39:04;18.50;52.90
24744;DHT22;12844;52.110;5.548;2023-02-16T08:41:32;18.50;52.90
24744;DHT22;12844;52.110;5.548;2023-02-16T08:43:59;18.50;52.90
24744;DHT22;12844;52.110;5.548;2023-02-16T08:46:26;18.50;52.90
24744;DHT22;12844;52.110;5.548;2023-02-16T08:48:54;18.50;52.80
24744;DHT22;12844;52.110;5.548;2023-02-16T08:51:22;18.50;53.00
24744;DHT22;12844;52.110;5.548;2023-02-16T08:53:49;18.60;52.90
24744;DHT22;12844;52.110;5.548;2023-02-16T08:56:16;18.60;52.90
24744;DHT22;12844;52.110;5.548;2023-02-16T08:58:42;18.60;52.90
24744;DHT22;12844;52.110;5.548;2023-02-16T09:01:09;18.50;53.00
24744;DHT22;12844;52.110;5.548;2023-02-16T09:03:36;18.60;53.10
24744;DHT22;12844;52.110;5.548;2023-02-16T09:06:03;18.50;53.00
24744;DHT22;12844;52.110;5.548;2023-02-16T09:08:30;18.50;53.10
24744;DHT22;12844;52.110;5.548;2023-02-16T09:11:14;18.50;53.10
24744;DHT22;12844;52.110;5.548;2023-02-16T09:13:40;18.50;53.00
24744;DHT22;12844;52.110;5.548;2023-02-16T09:16:12;18.50;53.10
24744;DHT22;12844;52.110;5.548;2023-02-16T09:18:38;18.50;53.00
24744;DHT22;12844;52.110;5.548;2023-02-16T09:21:17;18.50;53.00
24744;DHT22;12844;52.110;5.548;2023-02-16T09:23:45;18.50;53.00
24744;DHT22;12844;52.110;5.548;2023-02-16T09:26:18;18.40;53.00
24744;DHT22;12844;52.110;5.548;2023-02-16T09:28:44;18.40;53.00
24744;DHT22;12844;52.110;5.548;2023-02-16T09:31:12;18.40;53.70
24744;DHT22;12844;52.110;5.548;2023-02-16T09:33:39;18.50;53.00
24744;DHT22;12844;52.110;5.548;2023-02-16T09:36:07;18.50;53.00
24744;DHT22;12844;52.110;5.548;2023-02-16T09:38:33;18.50;52.90
24744;DHT22;12844;52.110;5.548;2023-02-16T09:41:14;18.50;53.00
24744;DHT22;12844;52.110;5.548;2023-02-16T09:43:48;18.50;52.90
24744;DHT22;12844;52.110;5.548;2023-02-16T09:46:19;18.50;53.00
24744;DHT22;12844;52.110;5.548;2023-02-16T09:48:46;18.40;53.00
24744;DHT22;12844;52.110;5.548;2023-02-16T09:51:21;18.30;53.00
24744;DHT22;12844;52.110;5.548;2023-02-16T09:53:59;18.40;53.10
24744;DHT22;12844;52.110;5.548;2023-02-16T09:56:33;18.30;53.10
24744;DHT22;12844;52.110;5.548;2023-02-16T09:59:07;18.30;53.10
24744;DHT22;12844;52.110;5.548;2023-02-16T10:01:55;18.30;53.20
24744;DHT22;12844;52.110;5.548;2023-02-16T10:10:24;18.30;53.10
24744;DHT22;12844;52.110;5.548;2023-02-16T10:13:21;18.30;53.20
24744;DHT22;12844;52.110;5.548;2023-02-16T10:15:50;18.30;53.10
24744;DHT22;12844;52.110;5.548;2023-02-16T10:18:32;18.30;53.10
24744;DHT22;12844;52.110;5.548;2023-02-16T10:21:02;18.30;53.00
24744;DHT22;12844;52.110;5.548;2023-02-16T10:23:38;18.30;53.00
24744;DHT22;12844;52.110;5.548;2023-02-16T10:26:31;18.30;52.90
24744;DHT22;12844;52.110;5.548;2023-02-16T10:29:02;18.40;52.90
24744;DHT22;12844;52.110;5.548;2023-02-16T10:31:35;18.30;53.00
24744;DHT22;12844;52.110;5.548;2023-02-16T10:37:15;18.30;53.00
24744;DHT22;12844;52.110;5.548;2023-02-16T10:40:11;18.30;53.00
24744;DHT22;12844;52.110;5.548;2023-02-16T10:47:58;18.30;53.10
24744;DHT22;12844;52.110;5.548;2023-02-16T10:53:18;18.30;53.20
24744;DHT22;12844;52.110;5.548;2023-02-16T10:55:45;18.20;53.30
24744;DHT22;12844;52.110;5.548;2023-02-16T10:58:24;18.20;53.30
24744;DHT22;12844;52.110;5.548;2023-02-16T11:00:57;18.30;53.30
24744;DHT22;12844;52.110;5.548;2023-02-16T11:03:29;18.30;53.30
24744;DHT22;12844;52.110;5.548;2023-02-16T11:05:55;18.30;53.30
24744;DHT22;12844;52.110;5.548;2023-02-16T11:08:21;18.30;53.40
24744;DHT22;12844;52.110;5.548;2023-02-16T11:10:54;18.40;53.50
24744;DHT22;12844;52.110;5.548;2023-02-16T11:13:32;18.40;53.40
24744;DHT22;12844;52.110;5.548;2023-02-16T11:16:17;18.50;53.40
24744;DHT22;12844;52.110;5.548;2023-02-16T11:18:45;18.50;53.40
24744;DHT22;12844;52.110;5.548;2023-02-16T11:21:14;18.50;53.40
24744;DHT22;12844;52.110;5.548;2023-02-16T11:23:41;18.50;53.50
24744;DHT22;12844;52.110;5.548;2023-02-16T11:28:42;18.50;53.60
24744;DHT22;12844;52.110;5.548;2023-02-16T11:33:34;18.60;53.50
24744;DHT22;12844;52.110;5.548;2023-02-16T11:36:00;18.60;53.40
24744;DHT22;12844;52.110;5.548;2023-02-16T11:38:34;18.60;53.40
24744;DHT22;12844;52.110;5.548;2023-02-16T11:41:02;18.70;53.40
24744;DHT22;12844;52.110;5.548;2023-02-16T11:43:31;18.70;53.20
24744;DHT22;12844;52.110;5.548;2023-02-16T11:46:00;18.70;53.20
24744;DHT22;12844;52.110;5.548;2023-02-16T11:48:29;18.60;53.20
24744;DHT22;12844;52.110;5.548;2023-02-16T11:51:03;18.70;53.20
24744;DHT22;12844;52.110;5.548;2023-02-16T11:53:32;18.60;53.10
24744;DHT22;12844;52.110;5.548;2023-02-16T11:56:23;18.60;53.00
24744;DHT22;12844;52.110;5.548;2023-02-16T11:59:15;18.70;53.00
24744;DHT22;12844;52.110;5.548;2023-02-16T12:02:26;18.60;53.20
24744;DHT22;12844;52.110;5.548;2023-02-16T12:05:12;18.60;53.20
24744;DHT22;12844;52.110;5.548;2023-02-16T12:08:23;18.60;53.20
24744;DHT22;12844;52.110;5.548;2023-02-16T12:22:21;18.50;52.90
24744;DHT22;12844;52.110;5.548;2023-02-16T12:28:24;18.50;52.90
24744;DHT22;12844;52.110;5.548;2023-02-16T12:33:51;18.50;53.00
24744;DHT22;12844;52.110;5.548;2023-02-16T12:36:40;18.40;53.00
24744;DHT22;12844;52.110;5.548;2023-02-16T12:41:58;18.40;52.90
24744;DHT22;12844;52.110;5.548;2023-02-16T12:44:49;18.40;52.90
24744;DHT22;12844;52.110;5.548;2023-02-16T12:50:23;18.40;53.00
24744;DHT22;12844;52.110;5.548;2023-02-16T12:58:07;18.40;52.90
24744;DHT22;12844;52.110;5.548;2023-02-16T13:00:46;18.50;52.90
24744;DHT22;12844;52.110;5.548;2023-02-16T13:03:22;18.50;52.90
24744;DHT22;12844;52.110;5.548;2023-02-16T13:05:59;18.50;52.80
24744;DHT22;12844;52.110;5.548;2023-02-16T13:13:47;18.50;52.80
24744;DHT22;12844;52.110;5.548;2023-02-16T13:16:25;18.50;52.80
24744;DHT22;12844;52.110;5.548;2023-02-16T13:18:54;18.50;52.80
24744;DHT22;12844;52.110;5.548;2023-02-16T13:27:03;18.50;52.90
24744;DHT22;12844;52.110;5.548;2023-02-16T13:29:46;18.50;52.70
24744;DHT22;12844;52.110;5.548;2023-02-16T13:32:40;18.40;52.80
24744;DHT22;12844;52.110;5.548;2023-02-16T13:38:04;18.30;52.90
24744;DHT22;12844;52.110;5.548;2023-02-16T13:43:32;18.40;53.00
24744;DHT22;12844;52.110;5.548;2023-02-16T13:46:02;18.40;52.90
24744;DHT22;12844;52.110;5.548;2023-02-16T13:51:05;18.40;52.90
24744;DHT22;12844;52.110;5.548;2023-02-16T13:53:40;18.30;52.80
24744;DHT22;12844;52.110;5.548;2023-02-16T13:58:53;18.40;52.80
24744;DHT22;12844;52.110;5.548;2023-02-16T14:03:57;18.40;53.00
24744;DHT22;12844;52.110;5.548;2023-02-16T14:06:28;18.30;53.00
24744;DHT22;12844;52.110;5.548;2023-02-16T14:14:29;18.30;53.20
24744;DHT22;12844;52.110;5.548;2023-02-16T14:19:53;18.30;53.30
24744;DHT22;12844;52.110;5.548;2023-02-16T14:23:19;18.30;53.30
24744;DHT22;12844;52.110;5.548;2023-02-16T14:27:48;18.30;53.20
24744;DHT22;12844;52.110;5.548;2023-02-16T14:35:42;18.30;53.20
24744;DHT22;12844;52.110;5.548;2023-02-16T14:38:24;18.20;53.20
24744;DHT22;12844;52.110;5.548;2023-02-16T14:40:59;18.20;53.20
24744;DHT22;12844;52.110;5.548;2023-02-16T14:49:29;18.30;53.00
24744;DHT22;12844;52.110;5.548;2023-02-16T14:55:30;18.20;53.30
24744;DHT22;12844;52.110;5.548;2023-02-16T14:58:18;18.20;53.20
24744;DHT22;12844;52.110;5.548;2023-02-16T15:00:53;18.20;53.20
24744;DHT22;12844;52.110;5.548;2023-02-16T15:03:24;18.10;53.20
24744;DHT22;12844;52.110;5.548;2023-02-16T15:05:58;18.10;53.20
24744;DHT22;12844;52.110;5.548;2023-02-16T15:08:28;18.10;53.20
24744;DHT22;12844;52.110;5.548;2023-02-16T15:11:11;18.10;53.10
24744;DHT22;12844;52.110;5.548;2023-02-16T15:13:37;18.10;53.10
24744;DHT22;12844;52.110;5.548;2023-02-16T15:16:04;18.10;53.10
24744;DHT22;12844;52.110;5.548;2023-02-16T15:18:37;18.10;53.10
24744;DHT22;12844;52.110;5.548;2023-02-16T15:21:04;18.10;53.10
24744;DHT22;12844;52.110;5.548;2023-02-16T15:23:33;18.10;53.10
24744;DHT22;12844;52.110;5.548;2023-02-16T15:26:00;18.10;53.00
24744;DHT22;12844;52.110;5.548;2023-02-16T15:28:32;18.10;53.10
24744;DHT22;12844;52.110;5.548;2023-02-16T15:30:59;18.10;53.10
24744;DHT22;12844;52.110;5.548;2023-02-16T15:33:36;18.10;53.10
24744;DHT22;12844;52.110;5.548;2023-02-16T15:36:11;18.10;53.10
24744;DHT22;12844;52.110;5.548;2023-02-16T15:41:12;18.10;53.10
24744;DHT22;12844;52.110;5.548;2023-02-16T15:43:45;18.10;53.10
24744;DHT22;12844;52.110;5.548;2023-02-16T15:48:48;18.00;53.00
24744;DHT22;12844;52.110;5.548;2023-02-16T15:53:52;18.00;53.00
24744;DHT22;12844;52.110;5.548;2023-02-16T15:59:28;18.00;53.00
24744;DHT22;12844;52.110;5.548;2023-02-16T16:01:59;18.00;53.70
24744;DHT22;12844;52.110;5.548;2023-02-16T16:04:26;18.00;53.10
24744;DHT22;12844;52.110;5.548;2023-02-16T16:06:52;18.00;53.00
24744;DHT22;12844;52.110;5.548;2023-02-16T16:09:27;18.00;53.00
24744;DHT22;12844;52.110;5.548;2023-02-16T16:11:57;18.00;53.00
24744;DHT22;12844;52.110;5.548;2023-02-16T16:14:23;17.90;53.00
24744;DHT22;12844;52.110;5.548;2023-02-16T16:16:50;18.00;53.10
24744;DHT22;12844;52.110;5.548;2023-02-16T16:19:36;17.90;52.90
24744;DHT22;12844;52.110;5.548;2023-02-16T16:22:10;18.00;52.90
24744;DHT22;12844;52.110;5.548;2023-02-16T16:24:39;17.90;53.00
24744;DHT22;12844;52.110;5.548;2023-02-16T16:27:10;17.90;52.90
24744;DHT22;12844;52.110;5.548;2023-02-16T16:29:42;17.90;52.90
24744;DHT22;12844;52.110;5.548;2023-02-16T16:32:35;17.90;52.90
24744;DHT22;12844;52.110;5.548;2023-02-16T16:35:20;17.90;52.90
24744;DHT22;12844;52.110;5.548;2023-02-16T16:37:50;17.90;52.90
24744;DHT22;12844;52.110;5.548;2023-02-16T16:40:20;17.90;53.00
24744;DHT22;12844;52.110;5.548;2023-02-16T16:45:37;17.90;53.00
24744;DHT22;12844;52.110;5.548;2023-02-16T16:48:30;17.90;53.00
24744;DHT22;12844;52.110;5.548;2023-02-16T16:51:16;17.90;53.00
24744;DHT22;12844;52.110;5.548;2023-02-16T16:53:58;18.00;53.10
24744;DHT22;12844;52.110;5.548;2023-02-16T16:56:29;17.90;53.20
24744;DHT22;12844;52.110;5.548;2023-02-16T16:58:57;17.90;53.20
24744;DHT22;12844;52.110;5.548;2023-02-16T17:01:24;18.00;53.20
24744;DHT22;12844;52.110;5.548;2023-02-16T17:03:50;18.00;53.20
24744;DHT22;12844;52.110;5.548;2023-02-16T17:06:17;18.00;53.20
24744;DHT22;12844;52.110;5.548;2023-02-16T17:08:43;18.00;53.20
24744;DHT22;12844;52.110;5.548;2023-02-16T17:13:49;18.10;53.20
24744;DHT22;12844;52.110;5.548;2023-02-16T17:16:25;18.10;53.30
24744;DHT22;12844;52.110;5.548;2023-02-16T17:18:50;18.10;53.20
24744;DHT22;12844;52.110;5.548;2023-02-16T17:21:16;18.10;53.30
24744;DHT22;12844;52.110;5.548;2023-02-16T17:23:42;18.10;53.50
24744;DHT22;12844;52.110;5.548;2023-02-16T17:26:07;18.10;53.50
24744;DHT22;12844;52.110;5.548;2023-02-16T17:28:33;18.10;53.40
24744;DHT22;12844;52.110;5.548;2023-02-16T17:31:02;18.10;53.20
24744;DHT22;12844;52.110;5.548;2023-02-16T17:33:28;18.10;53.20
24744;DHT22;12844;52.110;5.548;2023-02-16T17:35:53;18.10;53.20
24744;DHT22;12844;52.110;5.548;2023-02-16T17:38:20;18.20;53.30
24744;DHT22;12844;52.110;5.548;2023-02-16T17:40:48;18.20;53.30
24744;DHT22;12844;52.110;5.548;2023-02-16T17:43:14;18.10;53.30
24744;DHT22;12844;52.110;5.548;2023-02-16T17:45:43;18.20;53.30
24744;DHT22;12844;52.110;5.548;2023-02-16T17:48:26;18.20;53.30
24744;DHT22;12844;52.110;5.548;2023-02-16T17:50:55;18.20;53.40
24744;DHT22;12844;52.110;5.548;2023-02-16T17:53:22;18.20;53.50
24744;DHT22;12844;52.110;5.548;2023-02-16T17:55:50;18.20;53.50
24744;DHT22;12844;52.110;5.548;2023-02-16T17:58:16;18.20;53.50
24744;DHT22;12844;52.110;5.548;2023-02-16T18:00:43;18.20;53.40
24744;DHT22;12844;52.110;5.548;2023-02-16T18:03:08;18.20;53.40
24744;DHT22;12844;52.110;5.548;2023-02-16T18:05:34;18.20;53.50
24744;DHT22;12844;52.110;5.548;2023-02-16T18:08:00;18.30;53.50
24744;DHT22;12844;52.110;5.548;2023-02-16T18:10:41;18.30;53.50
24744;DHT22;12844;52.110;5.548;2023-02-16T18:13:08;18.30;53.30